West Farms, New York
Current Conditions -  °F | °C
As of 5:58 AM on Wednesday 22 Oct 2014 (Local Time) from KLGA Reporting Station
Thunderstorm Thunderstorm  
Wind Chill: 55°   Ceiling: 2000
Heat Index: 55°   Visibility: 10mi
Dew Point: 52°   Wind: 13mph
Humidity: 88%   Direction: 360°N
Pressure: 29.89"   Gusts: NA
Location:  40.8446°N, 73.88°W
Report Text: KLGA 220958Z 36011KT 10SM -TSRA BKN020 BKN028CB OVC060 13/11 A2989 RMK AO2 TSB58 OCNL LTGICCC OHD-S TS OHD-S MOV NW P0002
Loading
Personal Weather Stations






























Interactive Weather Map
Tropical Storm Tracking
New forecast layout! Learn more

10-Day Weather Forecast

Advertisements
Track Severe Weather on mobile